Map

Track Data

SID SEASON NUMBER BASIN SUBBASIN NAME ISO_TIME NATURE LAT LON WMO_WIND WMO_PRES WMO_AGENCY TRACK_TYPE DIST2LAND LANDFALL IFLAG USA_AGENCY USA_ATCF_ID USA_LAT USA_LON USA_RECORD USA_STATUS USA_WIND USA_PRES USA_SSHS USA_R34_NE USA_R34_SE USA_R34_SW USA_R34_NW USA_R50_NE USA_R50_SE USA_R50_SW USA_R50_NW USA_R64_NE USA_R64_SE USA_R64_SW USA_R64_NW USA_POCI USA_ROCI USA_RMW USA_EYE TOKYO_LAT TOKYO_LON TOKYO_GRADE TOKYO_WIND TOKYO_PRES TOKYO_R50_DIR TOKYO_R50_LONG TOKYO_R50_SHORT TOKYO_R30_DIR TOKYO_R30_LONG TOKYO_R30_SHORT TOKYO_LAND CMA_LAT CMA_LON CMA_CAT CMA_WIND CMA_PRES HKO_LAT HKO_LON HKO_CAT HKO_WIND HKO_PRES NEWDELHI_LAT NEWDELHI_LON NEWDELHI_GRADE NEWDELHI_WIND NEWDELHI_PRES NEWDELHI_CI NEWDELHI_DP NEWDELHI_POCI REUNION_LAT REUNION_LON REUNION_TYPE REUNION_WIND REUNION_PRES REUNION_TNUM REUNION_CI REUNION_RMW REUNION_R34_NE REUNION_R34_SE REUNION_R34_SW REUNION_R34_NW REUNION_R50_NE REUNION_R50_SE REUNION_R50_SW REUNION_R50_NW REUNION_R64_NE REUNION_R64_SE REUNION_R64_SW REUNION_R64_NW BOM_LAT BOM_LON BOM_TYPE BOM_WIND BOM_PRES BOM_TNUM BOM_CI BOM_RMW BOM_R34_NE BOM_R34_SE BOM_R34_SW BOM_R34_NW BOM_R50_NE BOM_R50_SE BOM_R50_SW BOM_R50_NW BOM_R64_NE BOM_R64_SE BOM_R64_SW BOM_R64_NW BOM_ROCI BOM_POCI BOM_EYE BOM_POS_METHOD BOM_PRES_METHOD NADI_LAT NADI_LON NADI_CAT NADI_WIND NADI_PRES WELLINGTON_LAT WELLINGTON_LON WELLINGTON_WIND WELLINGTON_PRES DS824_LAT DS824_LON DS824_STAGE DS824_WIND DS824_PRES TD9636_LAT TD9636_LON TD9636_STAGE TD9636_WIND TD9636_PRES TD9635_LAT TD9635_LON TD9635_WIND TD9635_PRES TD9635_ROCI NEUMANN_LAT NEUMANN_LON NEUMANN_CLASS NEUMANN_WIND NEUMANN_PRES MLC_LAT MLC_LON MLC_CLASS MLC_WIND MLC_PRES USA_GUST BOM_GUST BOM_GUST_PER REUNION_GUST REUNION_GUST_PER USA_SEAHGT USA_SEARAD_NE USA_SEARAD_SE USA_SEARAD_SW USA_SEARAD_NW STORM_SPEED STORM_DIR
1887216N18300 1887 31 NA NA NOT_NAMED 1887-08-03 12:00:00 TS 18.2000 -60.2000 main 570 495 _____________O -1 18.2000 -60.2000 TD 30 14 287
1887216N18300 1887 31 NA NA NOT_NAMED 1887-08-03 15:00:00 TS 18.4005 -60.8997 main 495 422 _____________P -1 18.4005 -60.8997 TD 30 14 287
1887216N18300 1887 31 NA NA NOT_NAMED 1887-08-03 18:00:00 TS 18.6000 -61.6000 main 422 350 _____________O -1 18.6000 -61.6000 TD 30 14 287
1887216N18300 1887 31 NA NA NOT_NAMED 1887-08-03 21:00:00 TS 18.7997 -62.3002 main 350 281 _____________P -1 18.7997 -62.3002 TD 30 14 287
1887216N18300 1887 31 NA NA NOT_NAMED 1887-08-04 00:00:00 TS 19.0000 -63.0000 main 281 219 _____________O -1 19.0000 -63.0000 TD 30 14 287
1887216N18300 1887 31 NA NA NOT_NAMED 1887-08-04 03:00:00 TS 19.2072 -63.7001 main 219 168 _____________P -1 19.2072 -63.7001 TD 30 14 287
1887216N18300 1887 31 NA NA NOT_NAMED 1887-08-04 06:00:00 TS 19.4000 -64.4000 main 168 133 _____________O -1 19.4000 -64.4000 TD 30 14 285
1887216N18300 1887 31 NA NA NOT_NAMED 1887-08-04 09:00:00 TS 19.5496 -65.0929 main 133 133 _____________P -1 19.5496 -65.0929 TD 32 14 283
1887216N18300 1887 31 NA NA NOT_NAMED 1887-08-04 12:00:00 TS 19.7000 -65.8000 main 145 145 _____________O -1 19.7000 -65.8000 TS 35 14 284
1887216N18300 1887 31 NA NA NOT_NAMED 1887-08-04 15:00:00 TS 19.8999 -66.5499 main 167 167 _____________P -1 19.8999 -66.5499 TS 37 15 286
1887216N18300 1887 31 NA NA NOT_NAMED 1887-08-04 18:00:00 TS 20.1000 -67.3000 main 190 167 _____________O -1 20.1000 -67.3000 TS 40 14 284
1887216N18300 1887 31 NA NA NOT_NAMED 1887-08-04 21:00:00 TS 20.2496 -68.0079 main 167 138 _____________P -1 20.2496 -68.0079 TS 42 13 283
1887216N18300 1887 31 NA NA NOT_NAMED 1887-08-05 00:00:00 TS 20.4000 -68.7000 main 138 128 _____________O -1 20.4000 -68.7000 TS 45 14 285
1887216N18300 1887 31 NA NA NOT_NAMED 1887-08-05 03:00:00 TS 20.5922 -69.4001 main 128 119 _____________P -1 20.5922 -69.4001 TS 45 14 287
1887216N18300 1887 31 NA NA NOT_NAMED 1887-08-05 06:00:00 TS 20.8000 -70.1000 main 123 116 _____________O -1 20.8000 -70.1000 TS 45 14 288
1887216N18300 1887 31 NA NA NOT_NAMED 1887-08-05 09:00:00 TS 21.0073 -70.8075 main 134 134 _____________P -1 21.0073 -70.8075 TS 45 14 287
1887216N18300 1887 31 NA NA NOT_NAMED 1887-08-05 12:00:00 TS 21.2000 -71.5000 main 155 93 _____________O -1 21.2000 -71.5000 TS 45 13 285
1887216N18300 1887 31 NA NA NOT_NAMED 1887-08-05 15:00:00 TS 21.3572 -72.1652 main 85 39 _____________P -1 21.3572 -72.1652 TS 45 12 284
1887216N18300 1887 31 NA NA NOT_NAMED 1887-08-05 18:00:00 TS 21.5000 -72.8000 main 39 33 _____________O -1 21.5000 -72.8000 TS 45 12 285
1887216N18300 1887 31 NA NA NOT_NAMED 1887-08-05 21:00:00 TS 21.6492 -73.3703 main 49 49 _____________P -1 21.6492 -73.3703 TS 45 12 285
1887216N18300 1887 31 NA NA NOT_NAMED 1887-08-06 00:00:00 TS 21.8000 -74.0000 main 84 84 _____________O -1 21.8000 -74.0000 TS 45 14 282
1887216N18300 1887 31 NA NA NOT_NAMED 1887-08-06 03:00:00 TS 21.9506 -74.8499 main 139 113 _____________P -1 21.9506 -74.8499 TS 42 16 281
1887216N18300 1887 31 NA NA NOT_NAMED 1887-08-06 06:00:00 TS 22.1000 -75.7000 main 113 99 _____________O -1 22.1000 -75.7000 TS 40 14 282
1887216N18300 1887 31 NA NA NOT_NAMED 1887-08-06 09:00:00 TS 22.2569 -76.3451 main 106 78 _____________P -1 22.2569 -76.3451 TS 40 12 285
1887216N18300 1887 31 NA NA NOT_NAMED 1887-08-06 12:00:00 TS 22.4000 -76.9000 main 80 78 _____________O -1 22.4000 -76.9000 TS 40 11 283
1887216N18300 1887 31 NA NA NOT_NAMED 1887-08-06 15:00:00 TS 22.4997 -77.4503 main 73 53 _____________P -1 22.4997 -77.4503 TS 40 10 281
1887216N18300 1887 31 NA NA NOT_NAMED 1887-08-06 18:00:00 TS 22.6000 -78.0000 main 53 39 _____________O -1 22.6000 -78.0000 TS 40 11 283
1887216N18300 1887 31 NA NA NOT_NAMED 1887-08-06 21:00:00 TS 22.7424 -78.6000 main 44 44 _____________P -1 22.7424 -78.6000 TS 37 11 285
1887216N18300 1887 31 NA NA NOT_NAMED 1887-08-07 00:00:00 TS 22.9000 -79.2000 main 45 30 _____________O -1 22.9000 -79.2000 TS 35 11 286
1887216N18300 1887 31 NA NA NOT_NAMED 1887-08-07 03:00:00 TS 23.0497 -79.7502 main 23 22 _____________P -1 23.0497 -79.7502 TS 35 11 287
1887216N18300 1887 31 NA NA NOT_NAMED 1887-08-07 06:00:00 TS 23.2000 -80.3000 main 30 22 _____________O -1 23.2000 -80.3000 TS 35 11 285
1887216N18300 1887 31 NA NA NOT_NAMED 1887-08-07 09:00:00 TS 23.3424 -80.9002 main 33 33 _____________P -1 23.3424 -80.9002 TS 35 11 285
1887216N18300 1887 31 NA NA NOT_NAMED 1887-08-07 12:00:00 TS 23.5000 -81.5000 main 45 44 _____________O -1 23.5000 -81.5000 TS 35 11 288
1887216N18300 1887 31 NA NA NOT_NAMED 1887-08-07 15:00:00 TS 23.6921 -82.0501 main 67 67 _____________P -1 23.6921 -82.0501 TS 32 11 292
1887216N18300 1887 31 NA NA NOT_NAMED 1887-08-07 18:00:00 TS 23.9000 -82.6000 main 89 89 _____________O -1 23.9000 -82.6000 TD 30 11 292
1887216N18300 1887 31 NA GM NOT_NAMED 1887-08-07 21:00:00 TS 24.1031 -83.1871 main 129 129 _____________P -1 24.1031 -83.1871 TD 30 12 290
1887216N18300 1887 31 NA GM NOT_NAMED 1887-08-08 00:00:00 TS 24.3000 -83.8000 main 161 _____________O -1 24.3000 -83.8000 TD 30 12 289

About IBTrACS Database

This database is a web-friendly format of International Best Track Archive for Climate Stewardship (IBTrACS), a global best track data archive curated by NOAA dating back to 1842.

Updated: 2021-10-27